Marysville, Canada
Current Conditions -  °F | °C
As of 9:00 AM on Tuesday 21 Oct 2014 (Local Time) from CYFC Reporting Station
Broken Clouds Broken Clouds  
Wind Chill: 27°   Ceiling: 5500
Heat Index: 32°   Visibility: 9mi
Dew Point: 30°   Wind: 5mph
Humidity: 93%   Direction: 210°SSW
Pressure: 30.11"   Gusts: NA
Location:  45.98°N, 66.58°W
Report Text: CYFC 211200Z AUTO 21004KT 9SM BKN055 BKN078 00/M01 A3011 RMK SLP197
Loading
Personal Weather Stations






























Interactive Weather Map
Tropical Storm Tracking
New forecast layout! Learn more

10-Day Weather Forecast

Advertisements
Track Severe Weather on mobile